createdAt,value
2019-01-31T00:02:29.456Z,7.10
2019-01-31T00:05:19.186Z,7.40
2019-01-31T00:08:05.812Z,6.97
2019-01-31T00:10:59.273Z,6.43
2019-01-31T00:13:47.888Z,6.40
2019-01-31T00:16:53.192Z,5.93
2019-01-31T00:19:31.001Z,5.00
2019-01-31T00:22:36.294Z,5.63
2019-01-31T00:25:17.050Z,5.93
2019-01-31T00:28:13.470Z,5.40
2019-01-31T00:31:15.607Z,4.87
2019-01-31T00:34:08.835Z,4.37
2019-01-31T00:37:11.564Z,5.10
2019-01-31T00:40:01.756Z,4.50
2019-01-31T00:43:08.939Z,5.20
2019-01-31T00:46:29.938Z,4.97
2019-01-31T00:49:27.580Z,4.60
2019-01-31T00:51:59.713Z,4.60
2019-01-31T00:54:43.774Z,4.30
2019-01-31T00:57:18.922Z,4.77
2019-01-31T00:59:53.965Z,5.00
2019-01-31T01:02:59.793Z,4.80
2019-01-31T01:05:57.793Z,5.20
2019-01-31T01:08:29.957Z,5.70
2019-01-31T01:11:16.190Z,5.27
2019-01-31T01:13:54.410Z,5.57
2019-01-31T01:16:35.766Z,5.00
2019-01-31T01:19:16.983Z,5.23
2019-01-31T01:22:21.205Z,4.90
2019-01-31T01:24:56.027Z,5.00
2019-01-31T01:28:12.147Z,4.83
2019-01-31T01:31:16.462Z,4.60
2019-01-31T01:34:00.492Z,4.47
2019-01-31T01:36:35.353Z,5.00
2019-01-31T01:39:19.201Z,4.50
2019-01-31T01:42:25.439Z,5.07
2019-01-31T01:45:14.201Z,5.10
2019-01-31T01:47:46.364Z,4.90
2019-01-31T01:50:39.937Z,4.63
2019-01-31T01:53:42.599Z,4.47
2019-01-31T01:56:32.520Z,4.43
2019-01-31T01:59:10.152Z,4.10
2019-01-31T02:02:23.838Z,4.13
2019-01-31T02:04:55.979Z,3.83
2019-01-31T02:08:01.977Z,4.50
2019-01-31T02:10:39.525Z,3.77
2019-01-31T02:13:20.575Z,4.27
2019-01-31T02:16:13.904Z,3.57
2019-01-31T02:18:46.144Z,3.73
2019-01-31T02:21:30.398Z,3.60
2019-01-31T02:24:11.662Z,4.03
2019-01-31T02:27:05.259Z,4.77
2019-01-31T02:29:46.186Z,4.43
2019-01-31T02:32:41.423Z,3.90
2019-01-31T02:35:39.067Z,3.73
2019-01-31T02:38:11.275Z,4.17
2019-01-31T02:41:15.292Z,3.93
2019-01-31T02:44:01.760Z,4.13
2019-01-31T02:46:42.692Z,4.23
2019-01-31T02:49:47.467Z,4.13
2019-01-31T02:52:34.684Z,4.00
2019-01-31T02:55:27.530Z,4.23
2019-01-31T02:58:14.820Z,3.60
2019-01-31T03:00:58.996Z,3.83
2019-01-31T03:03:39.880Z,4.20
2019-01-31T03:06:36.334Z,3.80
2019-01-31T03:09:32.990Z,3.70
2019-01-31T03:12:29.406Z,3.60
2019-01-31T03:15:01.818Z,3.83
2019-01-31T03:17:39.870Z,3.80
2019-01-31T03:20:40.904Z,3.97
2019-01-31T03:23:28.383Z,4.33
2019-01-31T03:26:00.671Z,3.90
2019-01-31T03:28:57.119Z,4.10
2019-01-31T03:31:45.702Z,3.90
2019-01-31T03:34:46.375Z,3.70
2019-01-31T03:37:33.635Z,4.27
2019-01-31T03:40:20.952Z,4.43
2019-01-31T03:46:26.170Z,3.97
2019-01-31T03:49:19.617Z,4.40
2019-01-31T03:52:25.545Z,4.27
2019-01-31T03:55:28.875Z,4.70
2019-01-31T03:58:31.338Z,4.60
2019-01-31T04:01:29.304Z,3.97
2019-01-31T04:04:04.265Z,4.20
2019-01-31T04:06:31.001Z,4.27
2019-01-31T04:08:57.791Z,4.20
2019-01-31T04:11:24.552Z,4.40
2019-01-31T04:13:51.259Z,5.40
2019-01-31T04:16:18.038Z,4.53
2019-01-31T04:18:44.761Z,4.53
2019-01-31T04:21:11.497Z,5.17
2019-01-31T04:23:38.309Z,5.47
2019-01-31T04:26:05.014Z,5.50
2019-01-31T04:28:31.728Z,5.40
2019-01-31T04:30:58.534Z,5.63
2019-01-31T04:33:25.293Z,4.37
2019-01-31T04:35:52.018Z,4.43
2019-01-31T04:38:19.976Z,5.00
2019-01-31T04:40:46.991Z,5.27
2019-01-31T04:43:13.718Z,4.47
2019-01-31T04:45:40.589Z,4.57
2019-01-31T04:48:07.438Z,4.47
2019-01-31T04:50:34.142Z,4.60
2019-01-31T04:53:00.993Z,4.60
2019-01-31T04:55:27.743Z,4.97
2019-01-31T04:57:54.464Z,4.20
2019-01-31T05:00:21.316Z,5.60
2019-01-31T05:02:48.076Z,17.87
2019-01-31T05:05:14.787Z,15.93
2019-01-31T05:07:41.567Z,9.63
2019-01-31T05:10:11.420Z,9.03
2019-01-31T05:12:38.137Z,6.13
2019-01-31T05:15:09.572Z,7.07
2019-01-31T05:17:36.292Z,6.00
2019-01-31T05:20:10.677Z,7.23
2019-01-31T05:22:37.466Z,7.10
2019-01-31T05:25:06.913Z,7.07
2019-01-31T05:27:33.619Z,6.77
2019-01-31T05:30:00.405Z,6.73
2019-01-31T05:32:27.125Z,6.57
2019-01-31T05:34:53.838Z,6.20
2019-01-31T05:37:20.640Z,6.37
2019-01-31T05:39:47.391Z,6.60
2019-01-31T05:42:14.165Z,5.03
2019-01-31T05:44:40.964Z,4.80
2019-01-31T05:47:07.689Z,5.90
2019-01-31T05:49:34.432Z,5.93
2019-01-31T05:52:01.407Z,6.57
2019-01-31T05:54:28.090Z,7.00
2019-01-31T05:56:54.826Z,6.80
2019-01-31T05:59:21.645Z,6.73
2019-01-31T06:01:48.365Z,7.57
2019-01-31T06:04:15.095Z,7.87
2019-01-31T06:06:41.889Z,9.30
2019-01-31T06:09:08.614Z,10.73
2019-01-31T06:11:35.347Z,10.40
2019-01-31T06:14:02.143Z,10.37
2019-01-31T06:16:28.865Z,10.27
2019-01-31T06:18:55.603Z,10.47
2019-01-31T06:21:22.391Z,9.70
2019-01-31T06:23:49.117Z,7.77
2019-01-31T06:26:15.872Z,6.97
2019-01-31T06:28:42.668Z,9.70
2019-01-31T06:31:09.406Z,27.67
2019-01-31T06:33:36.144Z,25.67
2019-01-31T06:36:02.964Z,11.20
2019-01-31T06:38:29.677Z,16.07
2019-01-31T06:40:56.415Z,10.63
2019-01-31T06:43:23.330Z,10.83
2019-01-31T06:45:50.047Z,27.77
2019-01-31T06:48:16.776Z,15.67
2019-01-31T06:50:43.587Z,8.73
2019-01-31T06:53:10.344Z,7.60
2019-01-31T06:55:37.079Z,10.37
2019-01-31T06:58:03.866Z,10.57
2019-01-31T07:00:30.608Z,11.40
2019-01-31T07:02:57.338Z,12.83
2019-01-31T07:05:24.148Z,15.43
2019-01-31T07:07:50.904Z,18.87
2019-01-31T07:10:23.293Z,14.50
2019-01-31T07:12:50.104Z,14.50
2019-01-31T07:15:16.835Z,14.50
2019-01-31T07:17:43.581Z,10.93
2019-01-31T07:20:15.926Z,11.73
2019-01-31T07:22:42.637Z,9.17
2019-01-31T07:25:19.062Z,7.80
2019-01-31T07:27:45.820Z,6.80
2019-01-31T07:30:18.732Z,8.20
2019-01-31T07:32:45.543Z,9.33
2019-01-31T07:35:13.155Z,9.10
2019-01-31T07:37:39.900Z,9.10
2019-01-31T07:40:13.756Z,9.47
2019-01-31T07:42:40.523Z,10.93
2019-01-31T07:45:26.978Z,10.40
2019-01-31T07:47:53.721Z,10.10
2019-01-31T07:50:20.460Z,13.90
2019-01-31T07:52:47.260Z,18.00
2019-01-31T07:55:14.017Z,19.50
2019-01-31T07:57:40.807Z,17.30
2019-01-31T08:00:21.178Z,15.77
2019-01-31T08:02:47.898Z,14.83
2019-01-31T08:05:17.957Z,17.47
2019-01-31T08:07:46.120Z,20.27
2019-01-31T08:10:29.513Z,14.73
2019-01-31T08:12:56.309Z,13.43
2019-01-31T08:15:23.066Z,13.93
2019-01-31T08:17:49.800Z,13.80
2019-01-31T08:20:19.075Z,17.77
2019-01-31T08:22:45.802Z,14.77
2019-01-31T08:25:19.522Z,14.53
2019-01-31T08:27:46.554Z,17.93
2019-01-31T08:30:37.905Z,19.17
2019-01-31T08:33:04.556Z,18.73
2019-01-31T08:35:31.295Z,18.73
2019-01-31T08:37:58.049Z,17.93
2019-01-31T08:40:24.853Z,15.93
2019-01-31T08:42:51.572Z,17.63
2019-01-31T08:45:18.411Z,16.43
2019-01-31T08:47:45.233Z,14.63
2019-01-31T08:50:18.095Z,10.33
2019-01-31T08:52:44.829Z,9.40
2019-01-31T08:55:11.648Z,11.07
2019-01-31T08:57:38.387Z,11.33
2019-01-31T09:00:15.304Z,10.60
2019-01-31T09:02:42.063Z,10.53
2019-01-31T09:05:08.797Z,9.93
2019-01-31T09:07:35.617Z,8.40
2019-01-31T09:10:06.579Z,6.97
2019-01-31T09:12:33.316Z,6.67
2019-01-31T09:15:00.306Z,7.03
2019-01-31T09:17:27.032Z,6.57
2019-01-31T09:19:53.772Z,10.23
2019-01-31T09:22:24.567Z,7.50
2019-01-31T09:25:05.840Z,6.93
2019-01-31T09:27:47.234Z,6.10
2019-01-31T09:30:27.681Z,6.87
2019-01-31T09:33:15.277Z,8.47
2019-01-31T09:36:02.874Z,8.37
2019-01-31T09:39:13.853Z,8.37
2019-01-31T09:41:54.937Z,9.37
2019-01-31T09:44:59.895Z,10.97
2019-01-31T09:47:59.419Z,8.03
2019-01-31T09:50:42.937Z,6.93
2019-01-31T09:53:24.284Z,7.97
2019-01-31T09:56:14.593Z,7.90
2019-01-31T09:58:49.609Z,8.83
2019-01-31T10:01:56.260Z,8.80
2019-01-31T10:08:10.488Z,8.13
2019-01-31T10:11:02.351Z,7.20
2019-01-31T10:13:56.001Z,6.57
2019-01-31T10:16:37.140Z,7.10
2019-01-31T10:19:33.215Z,6.83
2019-01-31T10:22:26.469Z,6.83
2019-01-31T10:25:45.855Z,5.67
2019-01-31T10:28:26.880Z,4.43
2019-01-31T10:31:17.245Z,4.47
2019-01-31T10:34:16.026Z,4.40
2019-01-31T10:37:12.312Z,4.03
2019-01-31T10:40:02.686Z,3.93
2019-01-31T10:43:09.972Z,3.33
2019-01-31T10:45:53.795Z,3.40
2019-01-31T10:48:48.003Z,3.50
2019-01-31T10:51:53.828Z,3.90
2019-01-31T10:54:43.938Z,4.03
2019-01-31T10:57:34.451Z,3.63
2019-01-31T11:00:09.692Z,3.40
2019-01-31T11:02:50.662Z,4.07
2019-01-31T11:05:31.320Z,4.10
2019-01-31T11:08:11.758Z,3.63
2019-01-31T11:11:02.243Z,4.00
2019-01-31T11:13:57.996Z,3.97
2019-01-31T11:16:45.490Z,4.17
2019-01-31T11:19:44.492Z,4.53
2019-01-31T11:22:41.313Z,4.13
2019-01-31T11:26:00.147Z,4.20
2019-01-31T11:29:01.435Z,5.53
2019-01-31T11:31:42.542Z,4.83
2019-01-31T11:34:32.707Z,4.90
2019-01-31T11:40:13.514Z,6.17
2019-01-31T11:43:11.961Z,4.40
2019-01-31T11:46:02.646Z,3.80
2019-01-31T11:48:34.887Z,4.70
2019-01-31T11:51:38.946Z,3.73
2019-01-31T11:54:29.247Z,4.00
2019-01-31T11:57:16.665Z,3.20
2019-01-31T11:59:43.456Z,3.97
2019-01-31T12:02:10.245Z,6.13
2019-01-31T12:04:37.097Z,4.67
2019-01-31T12:07:03.860Z,5.13
2019-01-31T12:09:30.622Z,3.73
2019-01-31T12:11:57.477Z,4.23
2019-01-31T12:14:24.223Z,4.93
2019-01-31T12:16:50.973Z,4.03
2019-01-31T12:19:17.767Z,4.93
2019-01-31T12:21:44.488Z,5.43
2019-01-31T12:24:16.585Z,4.37
2019-01-31T12:26:39.851Z,4.00
2019-01-31T12:29:06.591Z,4.40
2019-01-31T12:31:33.333Z,6.97
2019-01-31T12:34:00.350Z,7.50
2019-01-31T12:36:27.085Z,7.60
2019-01-31T12:38:55.046Z,9.00
2019-01-31T12:41:22.087Z,11.20
2019-01-31T12:43:48.825Z,10.40
2019-01-31T12:46:15.547Z,8.17
2019-01-31T12:48:42.365Z,9.57
2019-01-31T12:51:09.126Z,9.37
2019-01-31T12:53:35.898Z,8.50
2019-01-31T12:56:02.771Z,6.90
2019-01-31T12:58:33.706Z,6.47
2019-01-31T13:00:58.035Z,4.80
2019-01-31T13:03:24.846Z,6.53
2019-01-31T13:05:51.580Z,6.80
2019-01-31T13:08:18.904Z,6.40
2019-01-31T13:10:45.729Z,6.00
2019-01-31T13:13:12.474Z,6.67
2019-01-31T13:15:39.219Z,9.77
2019-01-31T13:18:06.110Z,7.70
2019-01-31T13:20:32.823Z,8.50
2019-01-31T13:22:59.555Z,8.23
2019-01-31T13:25:26.337Z,8.00
2019-01-31T13:27:53.088Z,5.77
2019-01-31T13:30:21.744Z,4.23
2019-01-31T13:32:49.454Z,6.87
2019-01-31T13:35:16.181Z,8.00
2019-01-31T13:37:43.031Z,7.30
2019-01-31T13:40:14.402Z,7.07
2019-01-31T13:42:41.238Z,6.20
2019-01-31T13:45:15.128Z,6.00
2019-01-31T13:47:41.936Z,6.60
2019-01-31T13:50:12.657Z,7.70
2019-01-31T13:52:39.483Z,10.03
2019-01-31T13:55:23.405Z,6.83
2019-01-31T13:57:50.141Z,6.10
2019-01-31T14:00:20.945Z,5.73
2019-01-31T14:02:47.700Z,4.33
2019-01-31T14:05:14.448Z,4.40
2019-01-31T14:07:41.256Z,3.70
2019-01-31T14:10:12.759Z,3.20
2019-01-31T14:12:39.507Z,3.40
2019-01-31T14:15:11.259Z,3.40
2019-01-31T14:17:38.072Z,4.90
2019-01-31T14:20:10.232Z,7.70
2019-01-31T14:22:42.966Z,5.47
2019-01-31T14:25:06.358Z,6.93
2019-01-31T14:27:33.301Z,8.70
2019-01-31T14:30:00.334Z,6.67
2019-01-31T14:32:27.140Z,7.60
2019-01-31T14:34:53.886Z,6.23
2019-01-31T14:37:20.626Z,4.77
2019-01-31T14:39:47.395Z,4.80
2019-01-31T14:42:14.110Z,5.13
2019-01-31T14:44:40.887Z,3.07
2019-01-31T14:47:07.672Z,3.07
2019-01-31T14:49:34.507Z,6.67
2019-01-31T14:52:01.224Z,3.00
2019-01-31T14:54:28.116Z,2.70
2019-01-31T14:56:54.832Z,3.97
2019-01-31T14:59:21.579Z,4.50
2019-01-31T15:02:00.156Z,3.10
2019-01-31T15:04:35.389Z,3.67
2019-01-31T15:07:08.615Z,3.70
2019-01-31T15:09:40.960Z,5.00
2019-01-31T15:12:13.279Z,4.37
2019-01-31T15:14:47.526Z,7.90
2019-01-31T15:17:20.851Z,8.90
2019-01-31T15:19:57.551Z,5.30
2019-01-31T15:22:24.376Z,5.20
2019-01-31T15:24:51.100Z,4.60
2019-01-31T15:27:17.854Z,5.80
2019-01-31T15:29:50.775Z,15.67
2019-01-31T15:32:19.860Z,7.63
2019-01-31T15:34:49.183Z,5.50
2019-01-31T15:37:24.588Z,8.20
2019-01-31T15:39:59.441Z,6.73
2019-01-31T15:42:31.129Z,7.07
2019-01-31T15:44:57.840Z,7.97
2019-01-31T15:47:24.607Z,7.37
2019-01-31T15:49:51.457Z,6.73
2019-01-31T15:52:18.192Z,6.17
2019-01-31T15:54:48.323Z,6.73
2019-01-31T15:57:16.829Z,4.13
2019-01-31T15:59:43.644Z,4.90
2019-01-31T16:02:10.380Z,3.80
2019-01-31T16:04:37.205Z,5.03
2019-01-31T16:07:03.956Z,4.30
2019-01-31T16:09:30.741Z,5.00
2019-01-31T16:11:59.743Z,5.60
2019-01-31T16:14:26.124Z,4.80
2019-01-31T16:16:52.806Z,4.70
2019-01-31T16:19:19.648Z,4.90
2019-01-31T16:21:46.487Z,6.50
2019-01-31T16:24:13.226Z,4.90
2019-01-31T16:26:40.135Z,4.77
2019-01-31T16:29:06.874Z,6.33
2019-01-31T16:31:33.611Z,12.67
2019-01-31T16:34:00.407Z,7.27
2019-01-31T16:36:27.241Z,5.27
2019-01-31T16:38:53.971Z,5.90
2019-01-31T16:41:20.770Z,5.97
2019-01-31T16:43:47.488Z,5.73
2019-01-31T16:46:14.216Z,6.27
2019-01-31T16:48:41.049Z,5.17
2019-01-31T16:51:07.798Z,6.77
2019-01-31T16:53:34.526Z,7.00
2019-01-31T16:56:01.413Z,7.30
2019-01-31T16:58:28.155Z,6.07
2019-01-31T17:00:54.888Z,5.50
2019-01-31T17:03:21.760Z,5.40
2019-01-31T17:05:48.472Z,8.30
2019-01-31T17:08:15.215Z,8.53
2019-01-31T17:10:42.046Z,8.83
2019-01-31T17:13:08.771Z,8.33
2019-01-31T17:15:35.544Z,6.53
2019-01-31T17:18:02.354Z,6.07
2019-01-31T17:20:36.227Z,6.53
2019-01-31T17:23:02.905Z,5.63
2019-01-31T17:25:29.776Z,5.87
2019-01-31T17:27:56.530Z,5.80
2019-01-31T17:30:26.570Z,6.57
2019-01-31T17:32:53.473Z,6.07
2019-01-31T17:35:20.214Z,5.83
2019-01-31T17:37:48.359Z,5.83
2019-01-31T17:40:26.316Z,6.80
2019-01-31T17:42:53.055Z,5.80
2019-01-31T17:45:30.027Z,9.93
2019-01-31T17:47:51.866Z,25.97
2019-01-31T17:50:21.794Z,36.23
2019-01-31T17:52:48.737Z,31.90
2019-01-31T17:55:19.949Z,25.87
2019-01-31T17:57:46.711Z,22.20
2019-01-31T18:00:29.250Z,22.40
2019-01-31T18:02:56.056Z,28.53
2019-01-31T18:05:24.619Z,27.20
2019-01-31T18:07:53.267Z,24.50
2019-01-31T18:10:22.275Z,24.50
2019-01-31T18:12:49.025Z,23.03
2019-01-31T18:15:18.849Z,25.57
2019-01-31T18:17:45.696Z,29.70
2019-01-31T18:20:18.410Z,25.87
2019-01-31T18:22:45.205Z,29.53
2019-01-31T18:25:12.081Z,28.37
2019-01-31T18:27:38.758Z,44.77
2019-01-31T18:30:11.054Z,36.50
2019-01-31T18:32:37.792Z,24.43
2019-01-31T18:35:08.549Z,22.07
2019-01-31T18:37:35.330Z,26.83
2019-01-31T18:40:02.750Z,23.77
2019-01-31T18:42:29.727Z,24.27
2019-01-31T18:44:56.634Z,23.87
2019-01-31T18:47:25.201Z,23.07
2019-01-31T18:49:51.972Z,25.00
2019-01-31T18:52:18.752Z,25.43
2019-01-31T18:54:45.480Z,22.03
2019-01-31T18:57:12.870Z,24.50
2019-01-31T18:59:39.883Z,25.03
2019-01-31T19:02:06.617Z,22.47
2019-01-31T19:04:33.339Z,23.07
2019-01-31T19:07:00.254Z,24.93
2019-01-31T19:09:27.017Z,25.00
2019-01-31T19:11:53.751Z,25.37
2019-01-31T19:14:20.552Z,20.67
2019-01-31T19:16:47.498Z,19.27
2019-01-31T19:19:14.225Z,20.97
2019-01-31T19:21:41.010Z,20.07
2019-01-31T19:24:07.740Z,19.83
2019-01-31T19:26:34.479Z,19.03
2019-01-31T19:29:01.351Z,20.17
2019-01-31T19:31:28.094Z,20.00
2019-01-31T19:33:54.862Z,19.10
2019-01-31T19:36:21.631Z,19.70
2019-01-31T19:38:48.361Z,19.93
2019-01-31T19:41:15.091Z,19.37
2019-01-31T19:43:41.899Z,19.10
2019-01-31T19:46:16.186Z,19.37
2019-01-31T19:48:37.173Z,19.23
2019-01-31T19:51:03.981Z,28.23
2019-01-31T19:53:30.725Z,34.27
2019-01-31T19:55:57.473Z,32.83
2019-01-31T19:58:24.304Z,39.93
2019-01-31T20:00:51.031Z,32.37
2019-01-31T20:03:17.778Z,25.93
2019-01-31T20:05:44.579Z,22.47
2019-01-31T20:08:11.309Z,23.07
2019-01-31T20:10:38.061Z,25.33
2019-01-31T20:13:04.869Z,30.93
2019-01-31T20:15:31.601Z,31.53
2019-01-31T20:17:58.344Z,28.37
2019-01-31T20:20:27.550Z,28.23
2019-01-31T20:22:54.766Z,19.40
2019-01-31T20:25:21.509Z,20.10
2019-01-31T20:27:48.295Z,24.37
2019-01-31T20:30:24.722Z,19.97
2019-01-31T20:32:52.309Z,17.67
2019-01-31T20:35:21.149Z,20.57
2019-01-31T20:37:47.889Z,22.27
2019-01-31T20:40:27.084Z,23.90
2019-01-31T20:42:53.809Z,23.57
2019-01-31T20:45:20.535Z,23.57
2019-01-31T20:47:47.915Z,22.27
2019-01-31T20:50:19.209Z,24.90
2019-01-31T20:52:45.943Z,27.13
2019-01-31T20:55:14.364Z,26.87
2019-01-31T20:57:41.217Z,22.13
2019-01-31T21:00:16.432Z,24.17
2019-01-31T21:02:43.166Z,23.50
2019-01-31T21:05:10.383Z,22.40
2019-01-31T21:07:37.163Z,20.33
2019-01-31T21:10:08.318Z,20.87
2019-01-31T21:12:35.043Z,22.50
2019-01-31T21:15:01.856Z,21.53
2019-01-31T21:17:28.583Z,20.20
2019-01-31T21:19:55.318Z,26.10
2019-01-31T21:22:22.105Z,21.83
2019-01-31T21:24:48.833Z,31.83
2019-01-31T21:27:15.561Z,21.67
2019-01-31T21:29:42.424Z,20.53
2019-01-31T21:32:09.167Z,20.33
2019-01-31T21:34:35.931Z,19.60
2019-01-31T21:37:04.657Z,17.47
2019-01-31T21:39:31.268Z,18.53
2019-01-31T21:41:58.007Z,19.47
2019-01-31T21:44:24.831Z,17.80
2019-01-31T21:47:02.431Z,18.63
2019-01-31T21:49:20.106Z,14.93
2019-01-31T21:51:46.913Z,14.83
2019-01-31T21:54:13.621Z,15.93
2019-01-31T21:56:40.339Z,18.23
2019-01-31T21:59:08.889Z,17.67
2019-01-31T22:01:35.776Z,15.13
2019-01-31T22:04:02.496Z,15.57
2019-01-31T22:06:29.295Z,15.90
2019-01-31T22:08:56.021Z,16.27
2019-01-31T22:11:22.738Z,16.83
2019-01-31T22:13:49.559Z,16.10
2019-01-31T22:16:16.272Z,16.13
2019-01-31T22:18:43.015Z,17.17
2019-01-31T22:21:09.794Z,17.57
2019-01-31T22:23:36.534Z,18.80
2019-01-31T22:26:03.265Z,18.70
2019-01-31T22:28:30.051Z,18.33
2019-01-31T22:30:56.770Z,21.10
2019-01-31T22:33:23.505Z,28.03
2019-01-31T22:35:50.305Z,24.13
2019-01-31T22:38:17.042Z,21.43
2019-01-31T22:40:43.791Z,20.87
2019-01-31T22:43:10.573Z,17.17
2019-01-31T22:45:37.318Z,12.70
2019-01-31T22:48:04.681Z,12.20
2019-01-31T22:50:31.501Z,10.20
2019-01-31T22:52:58.225Z,9.67
2019-01-31T22:55:25.553Z,11.53
2019-01-31T22:57:52.536Z,10.40
2019-01-31T23:00:42.371Z,10.93
2019-01-31T23:03:09.292Z,11.40
2019-01-31T23:05:36.024Z,10.27
2019-01-31T23:08:02.754Z,10.37
2019-01-31T23:10:29.569Z,10.20
2019-01-31T23:12:56.305Z,9.00
2019-01-31T23:15:23.040Z,9.90
2019-01-31T23:17:49.820Z,8.73
2019-01-31T23:20:16.555Z,8.20
2019-01-31T23:22:43.325Z,8.87
2019-01-31T23:25:10.172Z,9.77
2019-01-31T23:27:36.905Z,10.13
2019-01-31T23:30:11.912Z,10.93
2019-01-31T23:32:38.644Z,10.57
2019-01-31T23:35:07.776Z,10.70
2019-01-31T23:37:34.566Z,11.00
2019-01-31T23:40:01.407Z,11.13
2019-01-31T23:42:28.220Z,10.90
2019-01-31T23:44:54.989Z,10.67
2019-01-31T23:47:21.743Z,9.40
2019-01-31T23:49:48.456Z,9.77
2019-01-31T23:52:15.246Z,10.03
2019-01-31T23:54:41.998Z,9.90
2019-01-31T23:57:08.721Z,9.47
2019-01-31T23:59:35.508Z,9.10
